Mirante do Paranapanema, Brazil
Current Conditions -  °F | °C
As of 3:00 AM on Monday 22 Dec 2014 (Local Time) from SBDN Reporting Station
Broken Clouds Broken Clouds  
Wind Chill: 77°   Ceiling: 8000
Heat Index: 78°   Visibility: 6mi
Dew Point: 72°   Wind: 13mph
Humidity: 83%   Direction: 20°NNE
Pressure: 29.83"   Gusts: NA
Location:  22.29°S, 51.91°W
Report Text: SBDN 220500Z 02011KT 9999 FEW030 BKN080 25/22 Q1010
Loading
Personal Weather Stations






























Interactive Weather Map New forecast layout! Learn more

10-Day Weather Forecast

Advertisements
Track Severe Weather on mobile